sensor_id;sensor_type;location;lat;lon;timestamp;P1;durP1;ratioP1;P2;durP2;ratioP2
908;SDS011;441;51.192;6.788;2023-02-28T00:01:20;11.50;;;11.20;;
908;SDS011;441;51.192;6.788;2023-02-28T00:03:47;11.10;;;10.80;;
908;SDS011;441;51.192;6.788;2023-02-28T00:06:15;11.53;;;11.13;;
908;SDS011;441;51.192;6.788;2023-02-28T00:08:42;11.70;;;11.20;;
908;SDS011;441;51.192;6.788;2023-02-28T00:11:10;11.10;;;10.80;;
908;SDS011;441;51.192;6.788;2023-02-28T00:13:39;13.07;;;12.67;;
908;SDS011;441;51.192;6.788;2023-02-28T00:16:08;11.30;;;11.00;;
908;SDS011;441;51.192;6.788;2023-02-28T00:18:36;11.70;;;11.30;;
908;SDS011;441;51.192;6.788;2023-02-28T00:21:03;11.67;;;11.27;;
908;SDS011;441;51.192;6.788;2023-02-28T00:23:32;10.77;;;10.47;;
908;SDS011;441;51.192;6.788;2023-02-28T00:25:58;10.70;;;10.40;;
908;SDS011;441;51.192;6.788;2023-02-28T00:28:25;10.23;;;10.00;;
908;SDS011;441;51.192;6.788;2023-02-28T00:30:52;10.70;;;10.40;;
908;SDS011;441;51.192;6.788;2023-02-28T00:33:19;10.47;;;10.17;;
908;SDS011;441;51.192;6.788;2023-02-28T00:35:46;10.30;;;9.97;;
908;SDS011;441;51.192;6.788;2023-02-28T00:38:13;11.20;;;10.60;;
908;SDS011;441;51.192;6.788;2023-02-28T00:40:42;10.93;;;10.63;;
908;SDS011;441;51.192;6.788;2023-02-28T00:43:09;10.57;;;10.27;;
908;SDS011;441;51.192;6.788;2023-02-28T00:45:36;11.33;;;10.93;;
908;SDS011;441;51.192;6.788;2023-02-28T00:48:03;10.70;;;10.40;;
908;SDS011;441;51.192;6.788;2023-02-28T00:50:31;11.00;;;10.70;;
908;SDS011;441;51.192;6.788;2023-02-28T00:52:58;11.33;;;10.93;;
908;SDS011;441;51.192;6.788;2023-02-28T00:55:24;10.63;;;10.33;;
908;SDS011;441;51.192;6.788;2023-02-28T00:57:53;10.90;;;10.60;;
908;SDS011;441;51.192;6.788;2023-02-28T01:00:20;10.87;;;10.57;;
908;SDS011;441;51.192;6.788;2023-02-28T01:02:47;10.20;;;9.90;;
908;SDS011;441;51.192;6.788;2023-02-28T01:05:13;10.80;;;10.50;;
908;SDS011;441;51.192;6.788;2023-02-28T01:07:40;11.60;;;11.30;;
908;SDS011;441;51.192;6.788;2023-02-28T01:10:08;11.93;;;11.43;;
908;SDS011;441;51.192;6.788;2023-02-28T01:12:35;11.73;;;11.13;;
908;SDS011;441;51.192;6.788;2023-02-28T01:15:04;10.60;;;10.30;;
908;SDS011;441;51.192;6.788;2023-02-28T01:17:32;10.83;;;10.53;;
908;SDS011;441;51.192;6.788;2023-02-28T01:19:59;11.00;;;10.60;;
908;SDS011;441;51.192;6.788;2023-02-28T01:22:25;11.00;;;10.70;;
908;SDS011;441;51.192;6.788;2023-02-28T01:24:53;10.63;;;10.23;;
908;SDS011;441;51.192;6.788;2023-02-28T01:27:20;10.00;;;9.70;;
908;SDS011;441;51.192;6.788;2023-02-28T01:29:47;10.63;;;10.33;;
908;SDS011;441;51.192;6.788;2023-02-28T01:32:15;10.90;;;10.60;;
908;SDS011;441;51.192;6.788;2023-02-28T01:34:42;10.50;;;10.20;;
908;SDS011;441;51.192;6.788;2023-02-28T01:37:09;11.00;;;10.70;;
908;SDS011;441;51.192;6.788;2023-02-28T01:39:36;10.70;;;10.40;;
908;SDS011;441;51.192;6.788;2023-02-28T01:42:02;10.50;;;10.20;;
908;SDS011;441;51.192;6.788;2023-02-28T01:47:25;9.80;;;9.57;;
908;SDS011;441;51.192;6.788;2023-02-28T01:49:54;10.93;;;10.60;;
908;SDS011;441;51.192;6.788;2023-02-28T01:52:21;11.03;;;10.63;;
908;SDS011;441;51.192;6.788;2023-02-28T01:54:50;10.30;;;10.00;;
908;SDS011;441;51.192;6.788;2023-02-28T01:57:20;10.93;;;10.53;;
908;SDS011;441;51.192;6.788;2023-02-28T01:59:54;10.63;;;10.40;;
908;SDS011;441;51.192;6.788;2023-02-28T02:02:26;11.03;;;10.63;;
908;SDS011;441;51.192;6.788;2023-02-28T02:04:55;11.00;;;10.70;;
908;SDS011;441;51.192;6.788;2023-02-28T02:07:26;11.30;;;11.00;;
908;SDS011;441;51.192;6.788;2023-02-28T02:09:59;10.37;;;10.00;;
908;SDS011;441;51.192;6.788;2023-02-28T02:12:34;10.80;;;10.50;;
908;SDS011;441;51.192;6.788;2023-02-28T02:15:15;11.20;;;10.90;;
908;SDS011;441;51.192;6.788;2023-02-28T02:17:47;10.80;;;10.50;;
908;SDS011;441;51.192;6.788;2023-02-28T02:23:19;9.93;;;9.73;;
908;SDS011;441;51.192;6.788;2023-02-28T02:26:07;10.80;;;10.50;;
908;SDS011;441;51.192;6.788;2023-02-28T02:28:59;10.90;;;10.60;;
908;SDS011;441;51.192;6.788;2023-02-28T02:31:48;10.70;;;10.40;;
908;SDS011;441;51.192;6.788;2023-02-28T02:37:15;11.17;;;10.77;;
908;SDS011;441;51.192;6.788;2023-02-28T02:39:54;11.13;;;10.83;;
908;SDS011;441;51.192;6.788;2023-02-28T02:42:27;11.27;;;10.77;;
908;SDS011;441;51.192;6.788;2023-02-28T02:45:00;12.33;;;11.93;;
908;SDS011;441;51.192;6.788;2023-02-28T02:47:30;10.87;;;10.57;;
908;SDS011;441;51.192;6.788;2023-02-28T02:50:01;10.70;;;10.40;;
908;SDS011;441;51.192;6.788;2023-02-28T02:52:32;11.20;;;10.90;;
908;SDS011;441;51.192;6.788;2023-02-28T02:55:05;10.70;;;10.40;;
908;SDS011;441;51.192;6.788;2023-02-28T02:57:36;10.60;;;10.30;;
908;SDS011;441;51.192;6.788;2023-02-28T03:00:08;11.27;;;10.87;;
908;SDS011;441;51.192;6.788;2023-02-28T03:02:36;11.10;;;10.80;;
908;SDS011;441;51.192;6.788;2023-02-28T03:05:09;10.47;;;10.17;;
908;SDS011;441;51.192;6.788;2023-02-28T03:07:43;11.37;;;11.07;;
908;SDS011;441;51.192;6.788;2023-02-28T03:10:27;10.90;;;10.60;;
908;SDS011;441;51.192;6.788;2023-02-28T03:13:00;11.47;;;11.17;;
908;SDS011;441;51.192;6.788;2023-02-28T03:15:52;10.73;;;10.43;;
908;SDS011;441;51.192;6.788;2023-02-28T03:18:29;10.90;;;10.53;;
908;SDS011;441;51.192;6.788;2023-02-28T03:21:06;11.30;;;10.90;;
908;SDS011;441;51.192;6.788;2023-02-28T03:23:43;12.03;;;11.63;;
908;SDS011;441;51.192;6.788;2023-02-28T03:26:17;11.10;;;10.80;;
908;SDS011;441;51.192;6.788;2023-02-28T03:28:50;10.70;;;10.40;;
908;SDS011;441;51.192;6.788;2023-02-28T03:31:22;10.80;;;10.50;;
908;SDS011;441;51.192;6.788;2023-02-28T03:33:54;10.00;;;9.70;;
908;SDS011;441;51.192;6.788;2023-02-28T03:36:27;10.70;;;10.30;;
908;SDS011;441;51.192;6.788;2023-02-28T03:38:58;10.80;;;10.50;;
908;SDS011;441;51.192;6.788;2023-02-28T03:41:30;10.50;;;10.20;;
908;SDS011;441;51.192;6.788;2023-02-28T03:44:02;10.67;;;10.27;;
908;SDS011;441;51.192;6.788;2023-02-28T03:46:34;10.60;;;10.20;;
908;SDS011;441;51.192;6.788;2023-02-28T03:49:06;10.73;;;10.43;;
908;SDS011;441;51.192;6.788;2023-02-28T03:51:40;10.03;;;9.83;;
908;SDS011;441;51.192;6.788;2023-02-28T03:54:09;10.70;;;10.30;;
908;SDS011;441;51.192;6.788;2023-02-28T03:56:39;11.53;;;11.10;;
908;SDS011;441;51.192;6.788;2023-02-28T03:59:10;10.30;;;10.00;;
908;SDS011;441;51.192;6.788;2023-02-28T04:01:41;11.33;;;10.60;;
908;SDS011;441;51.192;6.788;2023-02-28T04:04:10;11.20;;;10.90;;
908;SDS011;441;51.192;6.788;2023-02-28T04:06:40;10.40;;;10.13;;
908;SDS011;441;51.192;6.788;2023-02-28T04:09:08;10.60;;;10.30;;
908;SDS011;441;51.192;6.788;2023-02-28T04:11:37;9.77;;;9.33;;
908;SDS011;441;51.192;6.788;2023-02-28T04:14:06;10.23;;;9.93;;
908;SDS011;441;51.192;6.788;2023-02-28T04:16:35;11.73;;;11.20;;
908;SDS011;441;51.192;6.788;2023-02-28T04:19:04;10.70;;;10.40;;
908;SDS011;441;51.192;6.788;2023-02-28T04:21:33;10.87;;;10.57;;
908;SDS011;441;51.192;6.788;2023-02-28T04:24:03;10.93;;;10.60;;
908;SDS011;441;51.192;6.788;2023-02-28T04:26:31;10.40;;;10.10;;
908;SDS011;441;51.192;6.788;2023-02-28T04:28:59;10.10;;;9.90;;
908;SDS011;441;51.192;6.788;2023-02-28T04:31:28;10.53;;;10.20;;
908;SDS011;441;51.192;6.788;2023-02-28T04:33:55;10.77;;;10.43;;
908;SDS011;441;51.192;6.788;2023-02-28T04:36:22;10.87;;;10.57;;
908;SDS011;441;51.192;6.788;2023-02-28T04:38:49;10.80;;;10.50;;
908;SDS011;441;51.192;6.788;2023-02-28T04:41:17;11.30;;;10.87;;
908;SDS011;441;51.192;6.788;2023-02-28T04:43:44;10.33;;;10.03;;
908;SDS011;441;51.192;6.788;2023-02-28T04:46:11;10.20;;;9.90;;
908;SDS011;441;51.192;6.788;2023-02-28T04:48:38;11.13;;;10.63;;
908;SDS011;441;51.192;6.788;2023-02-28T04:51:07;10.57;;;10.27;;
908;SDS011;441;51.192;6.788;2023-02-28T04:53:35;10.10;;;9.87;;
908;SDS011;441;51.192;6.788;2023-02-28T04:56:04;9.53;;;9.27;;
908;SDS011;441;51.192;6.788;2023-02-28T04:58:33;10.10;;;9.90;;
908;SDS011;441;51.192;6.788;2023-02-28T05:01:01;11.40;;;11.03;;
908;SDS011;441;51.192;6.788;2023-02-28T05:03:28;10.93;;;10.43;;
908;SDS011;441;51.192;6.788;2023-02-28T05:05:55;11.57;;;11.17;;
908;SDS011;441;51.192;6.788;2023-02-28T05:08:22;11.17;;;10.77;;
908;SDS011;441;51.192;6.788;2023-02-28T05:10:50;11.40;;;11.10;;
908;SDS011;441;51.192;6.788;2023-02-28T05:13:17;11.60;;;10.90;;
908;SDS011;441;51.192;6.788;2023-02-28T05:15:45;10.00;;;9.80;;
908;SDS011;441;51.192;6.788;2023-02-28T05:18:12;11.17;;;10.80;;
908;SDS011;441;51.192;6.788;2023-02-28T05:20:39;11.27;;;10.87;;
908;SDS011;441;51.192;6.788;2023-02-28T05:23:06;10.70;;;10.37;;
908;SDS011;441;51.192;6.788;2023-02-28T05:25:34;10.50;;;10.30;;
908;SDS011;441;51.192;6.788;2023-02-28T05:28:01;10.73;;;10.33;;
908;SDS011;441;51.192;6.788;2023-02-28T05:30:28;11.67;;;11.07;;
908;SDS011;441;51.192;6.788;2023-02-28T05:32:57;13.53;;;12.23;;
908;SDS011;441;51.192;6.788;2023-02-28T05:35:25;12.40;;;11.80;;
908;SDS011;441;51.192;6.788;2023-02-28T05:37:52;13.13;;;12.00;;
908;SDS011;441;51.192;6.788;2023-02-28T05:40:19;12.80;;;11.07;;
908;SDS011;441;51.192;6.788;2023-02-28T05:42:46;13.67;;;12.33;;
908;SDS011;441;51.192;6.788;2023-02-28T05:45:13;13.17;;;12.07;;
908;SDS011;441;51.192;6.788;2023-02-28T05:47:40;11.37;;;10.77;;
908;SDS011;441;51.192;6.788;2023-02-28T05:50:09;11.70;;;11.07;;
908;SDS011;441;51.192;6.788;2023-02-28T05:52:36;12.60;;;11.93;;
908;SDS011;441;51.192;6.788;2023-02-28T05:55:03;13.77;;;12.87;;
908;SDS011;441;51.192;6.788;2023-02-28T05:57:31;13.57;;;12.27;;
908;SDS011;441;51.192;6.788;2023-02-28T05:59:58;12.60;;;11.90;;
908;SDS011;441;51.192;6.788;2023-02-28T06:02:25;13.27;;;12.30;;
908;SDS011;441;51.192;6.788;2023-02-28T06:04:52;12.20;;;11.40;;
908;SDS011;441;51.192;6.788;2023-02-28T06:07:20;12.13;;;11.57;;
908;SDS011;441;51.192;6.788;2023-02-28T06:09:47;12.87;;;12.07;;
908;SDS011;441;51.192;6.788;2023-02-28T06:12:14;12.20;;;11.40;;
908;SDS011;441;51.192;6.788;2023-02-28T06:14:41;13.07;;;12.17;;
908;SDS011;441;51.192;6.788;2023-02-28T06:17:08;11.20;;;10.70;;
908;SDS011;441;51.192;6.788;2023-02-28T06:19:36;13.03;;;12.07;;
908;SDS011;441;51.192;6.788;2023-02-28T06:22:03;12.27;;;11.67;;
908;SDS011;441;51.192;6.788;2023-02-28T06:24:32;11.80;;;11.20;;
908;SDS011;441;51.192;6.788;2023-02-28T06:26:59;12.03;;;11.60;;
908;SDS011;441;51.192;6.788;2023-02-28T06:29:30;12.30;;;11.70;;
908;SDS011;441;51.192;6.788;2023-02-28T06:31:57;11.80;;;11.30;;
908;SDS011;441;51.192;6.788;2023-02-28T06:34:24;12.30;;;11.63;;
908;SDS011;441;51.192;6.788;2023-02-28T06:36:51;12.27;;;11.47;;
908;SDS011;441;51.192;6.788;2023-02-28T06:39:18;12.63;;;11.93;;
908;SDS011;441;51.192;6.788;2023-02-28T06:41:48;11.87;;;11.27;;
908;SDS011;441;51.192;6.788;2023-02-28T06:44:17;12.27;;;11.53;;
908;SDS011;441;51.192;6.788;2023-02-28T06:46:45;13.17;;;12.23;;
908;SDS011;441;51.192;6.788;2023-02-28T06:49:12;11.77;;;11.07;;
908;SDS011;441;51.192;6.788;2023-02-28T06:51:40;11.00;;;10.60;;
908;SDS011;441;51.192;6.788;2023-02-28T06:54:10;11.27;;;10.77;;
908;SDS011;441;51.192;6.788;2023-02-28T06:56:37;11.03;;;10.70;;
908;SDS011;441;51.192;6.788;2023-02-28T06:59:05;10.83;;;10.43;;
908;SDS011;441;51.192;6.788;2023-02-28T07:01:32;12.00;;;11.23;;
908;SDS011;441;51.192;6.788;2023-02-28T07:03:59;11.20;;;10.80;;
908;SDS011;441;51.192;6.788;2023-02-28T07:06:27;11.00;;;10.60;;
908;SDS011;441;51.192;6.788;2023-02-28T07:08:54;10.33;;;10.07;;
908;SDS011;441;51.192;6.788;2023-02-28T07:11:21;11.93;;;11.10;;
908;SDS011;441;51.192;6.788;2023-02-28T07:13:50;11.07;;;10.67;;
908;SDS011;441;51.192;6.788;2023-02-28T07:16:19;11.10;;;10.60;;
908;SDS011;441;51.192;6.788;2023-02-28T07:18:46;11.10;;;10.70;;
908;SDS011;441;51.192;6.788;2023-02-28T07:21:13;10.83;;;10.53;;
908;SDS011;441;51.192;6.788;2023-02-28T07:23:40;10.67;;;10.17;;
908;SDS011;441;51.192;6.788;2023-02-28T07:26:10;11.07;;;10.67;;
908;SDS011;441;51.192;6.788;2023-02-28T07:28:39;11.03;;;10.57;;
908;SDS011;441;51.192;6.788;2023-02-28T07:31:07;10.87;;;10.33;;
908;SDS011;441;51.192;6.788;2023-02-28T07:33:36;11.43;;;11.07;;
908;SDS011;441;51.192;6.788;2023-02-28T07:36:04;11.67;;;11.10;;
908;SDS011;441;51.192;6.788;2023-02-28T07:38:33;11.53;;;10.83;;
908;SDS011;441;51.192;6.788;2023-02-28T07:41:01;11.30;;;10.73;;
908;SDS011;441;51.192;6.788;2023-02-28T07:43:30;11.83;;;11.13;;
908;SDS011;441;51.192;6.788;2023-02-28T07:46:00;11.13;;;10.83;;
908;SDS011;441;51.192;6.788;2023-02-28T07:48:28;11.43;;;10.83;;
908;SDS011;441;51.192;6.788;2023-02-28T07:50:57;11.27;;;10.87;;
908;SDS011;441;51.192;6.788;2023-02-28T07:53:25;10.60;;;10.20;;
908;SDS011;441;51.192;6.788;2023-02-28T07:55:54;11.23;;;10.77;;
908;SDS011;441;51.192;6.788;2023-02-28T07:58:21;10.63;;;10.23;;
908;SDS011;441;51.192;6.788;2023-02-28T08:00:48;10.93;;;10.53;;
908;SDS011;441;51.192;6.788;2023-02-28T08:03:15;10.50;;;10.20;;
908;SDS011;441;51.192;6.788;2023-02-28T08:05:43;10.70;;;10.40;;
908;SDS011;441;51.192;6.788;2023-02-28T08:08:13;11.00;;;10.70;;
908;SDS011;441;51.192;6.788;2023-02-28T08:10:41;11.10;;;10.60;;
908;SDS011;441;51.192;6.788;2023-02-28T08:13:08;11.37;;;11.00;;
908;SDS011;441;51.192;6.788;2023-02-28T08:15:35;11.57;;;11.17;;
908;SDS011;441;51.192;6.788;2023-02-28T08:18:02;10.80;;;10.50;;
908;SDS011;441;51.192;6.788;2023-02-28T08:20:29;11.57;;;11.10;;
908;SDS011;441;51.192;6.788;2023-02-28T08:22:56;10.80;;;10.43;;
908;SDS011;441;51.192;6.788;2023-02-28T08:25:25;10.40;;;10.20;;
908;SDS011;441;51.192;6.788;2023-02-28T08:27:52;11.43;;;11.00;;
908;SDS011;441;51.192;6.788;2023-02-28T08:30:19;11.47;;;11.07;;
908;SDS011;441;51.192;6.788;2023-02-28T08:32:46;11.20;;;10.70;;
908;SDS011;441;51.192;6.788;2023-02-28T08:35:12;11.40;;;10.83;;
908;SDS011;441;51.192;6.788;2023-02-28T08:37:39;10.80;;;10.50;;
908;SDS011;441;51.192;6.788;2023-02-28T08:40:07;11.10;;;10.80;;
908;SDS011;441;51.192;6.788;2023-02-28T08:42:36;11.07;;;10.60;;
908;SDS011;441;51.192;6.788;2023-02-28T08:45:03;11.03;;;10.63;;
908;SDS011;441;51.192;6.788;2023-02-28T08:47:30;11.23;;;10.83;;
908;SDS011;441;51.192;6.788;2023-02-28T08:49:57;10.93;;;10.53;;
908;SDS011;441;51.192;6.788;2023-02-28T08:52:24;10.73;;;10.43;;
908;SDS011;441;51.192;6.788;2023-02-28T08:54:51;11.30;;;11.00;;
908;SDS011;441;51.192;6.788;2023-02-28T08:57:18;10.87;;;10.27;;
908;SDS011;441;51.192;6.788;2023-02-28T08:59:46;10.90;;;10.60;;
908;SDS011;441;51.192;6.788;2023-02-28T09:02:13;10.90;;;10.60;;
908;SDS011;441;51.192;6.788;2023-02-28T09:04:40;10.17;;;9.87;;
908;SDS011;441;51.192;6.788;2023-02-28T09:07:10;10.80;;;10.50;;
908;SDS011;441;51.192;6.788;2023-02-28T09:12:20;10.40;;;10.10;;
908;SDS011;441;51.192;6.788;2023-02-28T09:14:49;11.17;;;10.87;;
908;SDS011;441;51.192;6.788;2023-02-28T09:17:16;11.73;;;11.30;;
908;SDS011;441;51.192;6.788;2023-02-28T09:19:43;11.10;;;10.70;;
908;SDS011;441;51.192;6.788;2023-02-28T09:22:10;10.30;;;10.10;;
908;SDS011;441;51.192;6.788;2023-02-28T09:24:37;11.27;;;10.87;;
908;SDS011;441;51.192;6.788;2023-02-28T09:27:04;10.40;;;10.20;;
908;SDS011;441;51.192;6.788;2023-02-28T09:29:32;10.87;;;10.57;;
908;SDS011;441;51.192;6.788;2023-02-28T09:32:01;10.90;;;10.50;;
908;SDS011;441;51.192;6.788;2023-02-28T09:34:30;11.10;;;10.80;;
908;SDS011;441;51.192;6.788;2023-02-28T09:36:57;10.30;;;10.10;;
908;SDS011;441;51.192;6.788;2023-02-28T09:39:24;10.80;;;10.50;;
908;SDS011;441;51.192;6.788;2023-02-28T09:41:53;10.70;;;10.40;;
908;SDS011;441;51.192;6.788;2023-02-28T09:44:22;10.67;;;10.40;;
908;SDS011;441;51.192;6.788;2023-02-28T09:46:56;11.13;;;10.83;;
908;SDS011;441;51.192;6.788;2023-02-28T09:49:28;10.40;;;10.10;;
908;SDS011;441;51.192;6.788;2023-02-28T09:52:02;11.07;;;10.80;;
908;SDS011;441;51.192;6.788;2023-02-28T09:54:34;10.23;;;10.03;;
908;SDS011;441;51.192;6.788;2023-02-28T09:57:05;10.57;;;10.27;;
908;SDS011;441;51.192;6.788;2023-02-28T09:59:44;10.70;;;10.40;;
908;SDS011;441;51.192;6.788;2023-02-28T10:05:18;10.80;;;10.50;;
908;SDS011;441;51.192;6.788;2023-02-28T10:07:50;10.53;;;10.27;;
908;SDS011;441;51.192;6.788;2023-02-28T10:10:28;11.33;;;11.03;;
908;SDS011;441;51.192;6.788;2023-02-28T10:13:00;11.00;;;10.70;;
908;SDS011;441;51.192;6.788;2023-02-28T10:15:31;11.07;;;10.67;;
908;SDS011;441;51.192;6.788;2023-02-28T10:18:01;11.03;;;10.63;;
908;SDS011;441;51.192;6.788;2023-02-28T10:20:33;10.60;;;10.40;;
908;SDS011;441;51.192;6.788;2023-02-28T10:23:04;10.97;;;10.77;;
908;SDS011;441;51.192;6.788;2023-02-28T10:25:38;11.00;;;10.70;;
908;SDS011;441;51.192;6.788;2023-02-28T10:28:09;10.67;;;10.43;;
908;SDS011;441;51.192;6.788;2023-02-28T10:30:37;10.93;;;10.63;;
908;SDS011;441;51.192;6.788;2023-02-28T10:33:08;10.90;;;10.70;;
908;SDS011;441;51.192;6.788;2023-02-28T10:35:44;10.97;;;10.67;;
908;SDS011;441;51.192;6.788;2023-02-28T10:38:14;10.77;;;10.47;;
908;SDS011;441;51.192;6.788;2023-02-28T10:40:43;10.80;;;10.60;;
908;SDS011;441;51.192;6.788;2023-02-28T10:43:17;10.73;;;10.37;;
908;SDS011;441;51.192;6.788;2023-02-28T10:45:54;10.87;;;10.47;;
908;SDS011;441;51.192;6.788;2023-02-28T10:48:33;11.50;;;11.20;;
908;SDS011;441;51.192;6.788;2023-02-28T10:51:05;10.70;;;10.50;;
908;SDS011;441;51.192;6.788;2023-02-28T10:53:35;11.53;;;11.13;;
908;SDS011;441;51.192;6.788;2023-02-28T10:56:12;10.70;;;10.50;;
908;SDS011;441;51.192;6.788;2023-02-28T10:58:46;10.87;;;10.47;;
908;SDS011;441;51.192;6.788;2023-02-28T11:01:16;10.70;;;10.50;;
908;SDS011;441;51.192;6.788;2023-02-28T11:03:44;11.47;;;11.07;;
908;SDS011;441;51.192;6.788;2023-02-28T11:06:16;11.50;;;11.20;;
908;SDS011;441;51.192;6.788;2023-02-28T11:08:46;10.57;;;10.27;;
908;SDS011;441;51.192;6.788;2023-02-28T11:11:15;10.60;;;10.40;;
908;SDS011;441;51.192;6.788;2023-02-28T11:13:43;10.90;;;10.60;;
908;SDS011;441;51.192;6.788;2023-02-28T11:16:11;10.63;;;10.43;;
908;SDS011;441;51.192;6.788;2023-02-28T11:18:41;11.20;;;10.90;;
908;SDS011;441;51.192;6.788;2023-02-28T11:21:15;10.80;;;10.50;;
908;SDS011;441;51.192;6.788;2023-02-28T11:23:45;10.47;;;10.17;;
908;SDS011;441;51.192;6.788;2023-02-28T11:26:13;10.63;;;10.33;;
908;SDS011;441;51.192;6.788;2023-02-28T11:28:41;10.93;;;10.63;;
908;SDS011;441;51.192;6.788;2023-02-28T11:31:15;11.07;;;10.77;;
908;SDS011;441;51.192;6.788;2023-02-28T11:33:45;10.50;;;10.30;;
908;SDS011;441;51.192;6.788;2023-02-28T11:36:16;11.33;;;11.03;;
908;SDS011;441;51.192;6.788;2023-02-28T11:38:46;10.70;;;10.40;;
908;SDS011;441;51.192;6.788;2023-02-28T11:41:21;10.70;;;10.50;;
908;SDS011;441;51.192;6.788;2023-02-28T11:44:02;10.20;;;10.00;;
908;SDS011;441;51.192;6.788;2023-02-28T11:46:34;10.47;;;10.20;;
908;SDS011;441;51.192;6.788;2023-02-28T11:49:20;10.40;;;10.10;;
908;SDS011;441;51.192;6.788;2023-02-28T11:51:59;10.47;;;10.27;;
908;SDS011;441;51.192;6.788;2023-02-28T11:54:44;10.80;;;10.50;;
908;SDS011;441;51.192;6.788;2023-02-28T11:57:29;10.40;;;10.20;;
908;SDS011;441;51.192;6.788;2023-02-28T12:00:03;10.27;;;10.07;;
908;SDS011;441;51.192;6.788;2023-02-28T12:02:46;11.00;;;10.70;;
908;SDS011;441;51.192;6.788;2023-02-28T12:05:24;10.50;;;10.30;;
908;SDS011;441;51.192;6.788;2023-02-28T12:07:58;10.67;;;10.37;;
908;SDS011;441;51.192;6.788;2023-02-28T12:10:35;10.53;;;10.23;;
908;SDS011;441;51.192;6.788;2023-02-28T12:13:12;11.07;;;10.77;;
908;SDS011;441;51.192;6.788;2023-02-28T12:15:53;10.60;;;10.40;;
908;SDS011;441;51.192;6.788;2023-02-28T12:18:42;11.33;;;11.03;;
908;SDS011;441;51.192;6.788;2023-02-28T12:21:25;10.83;;;10.53;;
908;SDS011;441;51.192;6.788;2023-02-28T12:24:08;10.70;;;10.40;;
908;SDS011;441;51.192;6.788;2023-02-28T12:26:50;11.20;;;10.90;;
908;SDS011;441;51.192;6.788;2023-02-28T12:29:19;10.97;;;10.40;;
908;SDS011;441;51.192;6.788;2023-02-28T12:31:51;10.70;;;10.40;;
908;SDS011;441;51.192;6.788;2023-02-28T12:34:22;10.47;;;10.17;;
908;SDS011;441;51.192;6.788;2023-02-28T12:36:54;11.00;;;10.70;;
908;SDS011;441;51.192;6.788;2023-02-28T12:39:28;10.70;;;10.40;;
908;SDS011;441;51.192;6.788;2023-02-28T12:41:59;10.60;;;10.40;;
908;SDS011;441;51.192;6.788;2023-02-28T12:44:30;10.30;;;10.10;;
908;SDS011;441;51.192;6.788;2023-02-28T12:47:02;10.47;;;10.27;;
908;SDS011;441;51.192;6.788;2023-02-28T12:49:32;10.47;;;10.27;;
908;SDS011;441;51.192;6.788;2023-02-28T12:52:00;10.43;;;10.23;;
908;SDS011;441;51.192;6.788;2023-02-28T12:54:31;10.57;;;10.27;;
908;SDS011;441;51.192;6.788;2023-02-28T12:57:04;10.20;;;9.90;;
908;SDS011;441;51.192;6.788;2023-02-28T12:59:37;10.27;;;10.07;;
908;SDS011;441;51.192;6.788;2023-02-28T13:02:22;10.30;;;10.03;;
908;SDS011;441;51.192;6.788;2023-02-28T13:08:23;10.50;;;10.30;;
908;SDS011;441;51.192;6.788;2023-02-28T13:11:05;10.57;;;10.30;;
908;SDS011;441;51.192;6.788;2023-02-28T13:13:32;10.60;;;10.40;;
908;SDS011;441;51.192;6.788;2023-02-28T13:16:00;10.30;;;10.00;;
908;SDS011;441;51.192;6.788;2023-02-28T13:18:33;10.40;;;10.20;;
908;SDS011;441;51.192;6.788;2023-02-28T13:21:04;10.17;;;9.97;;
908;SDS011;441;51.192;6.788;2023-02-28T13:23:37;10.07;;;9.87;;
908;SDS011;441;51.192;6.788;2023-02-28T13:26:07;10.60;;;10.40;;
908;SDS011;441;51.192;6.788;2023-02-28T13:44:06;10.73;;;10.53;;
908;SDS011;441;51.192;6.788;2023-02-28T13:46:35;10.60;;;10.30;;
908;SDS011;441;51.192;6.788;2023-02-28T13:49:25;11.17;;;10.87;;
908;SDS011;441;51.192;6.788;2023-02-28T13:51:56;11.00;;;10.70;;
908;SDS011;441;51.192;6.788;2023-02-28T13:54:40;10.43;;;10.13;;
908;SDS011;441;51.192;6.788;2023-02-28T13:57:21;10.40;;;10.17;;
908;SDS011;441;51.192;6.788;2023-02-28T14:00:01;10.70;;;10.40;;
908;SDS011;441;51.192;6.788;2023-02-28T14:02:55;10.43;;;10.20;;
908;SDS011;441;51.192;6.788;2023-02-28T14:05:35;11.13;;;10.83;;
908;SDS011;441;51.192;6.788;2023-02-28T14:08:04;10.50;;;10.30;;
908;SDS011;441;51.192;6.788;2023-02-28T14:10:39;10.60;;;10.40;;
908;SDS011;441;51.192;6.788;2023-02-28T14:13:14;10.90;;;10.60;;
908;SDS011;441;51.192;6.788;2023-02-28T14:16:09;10.77;;;10.53;;
908;SDS011;441;51.192;6.788;2023-02-28T14:18:40;10.20;;;10.00;;
908;SDS011;441;51.192;6.788;2023-02-28T14:21:16;10.30;;;10.07;;
908;SDS011;441;51.192;6.788;2023-02-28T14:30:13;10.57;;;10.30;;
908;SDS011;441;51.192;6.788;2023-02-28T14:32:54;11.37;;;11.07;;
908;SDS011;441;51.192;6.788;2023-02-28T14:35:40;11.17;;;10.73;;
908;SDS011;441;51.192;6.788;2023-02-28T14:38:19;10.77;;;10.50;;
908;SDS011;441;51.192;6.788;2023-02-28T14:40:49;11.40;;;11.00;;
908;SDS011;441;51.192;6.788;2023-02-28T14:43:20;10.80;;;10.50;;
908;SDS011;441;51.192;6.788;2023-02-28T14:45:49;10.80;;;10.60;;
908;SDS011;441;51.192;6.788;2023-02-28T14:48:17;11.17;;;10.87;;
908;SDS011;441;51.192;6.788;2023-02-28T14:50:48;10.60;;;10.33;;
908;SDS011;441;51.192;6.788;2023-02-28T14:53:19;10.70;;;10.40;;
908;SDS011;441;51.192;6.788;2023-02-28T14:55:48;10.40;;;10.10;;
908;SDS011;441;51.192;6.788;2023-02-28T14:58:21;10.23;;;10.03;;
908;SDS011;441;51.192;6.788;2023-02-28T15:00:50;10.00;;;9.80;;
908;SDS011;441;51.192;6.788;2023-02-28T15:03:19;10.77;;;10.57;;
908;SDS011;441;51.192;6.788;2023-02-28T15:05:51;11.00;;;10.80;;
908;SDS011;441;51.192;6.788;2023-02-28T15:08:21;10.23;;;9.93;;
908;SDS011;441;51.192;6.788;2023-02-28T15:10:51;10.13;;;9.93;;
908;SDS011;441;51.192;6.788;2023-02-28T15:13:21;10.67;;;10.47;;
908;SDS011;441;51.192;6.788;2023-02-28T15:15:51;10.50;;;10.30;;
908;SDS011;441;51.192;6.788;2023-02-28T15:18:23;10.33;;;10.13;;
908;SDS011;441;51.192;6.788;2023-02-28T15:20:54;10.80;;;10.50;;
908;SDS011;441;51.192;6.788;2023-02-28T15:23:24;10.90;;;10.60;;
908;SDS011;441;51.192;6.788;2023-02-28T15:25:51;10.80;;;10.50;;
908;SDS011;441;51.192;6.788;2023-02-28T15:28:20;10.40;;;10.20;;
908;SDS011;441;51.192;6.788;2023-02-28T15:30:53;10.67;;;10.37;;
908;SDS011;441;51.192;6.788;2023-02-28T15:33:24;10.40;;;10.17;;
908;SDS011;441;51.192;6.788;2023-02-28T15:35:51;10.27;;;10.03;;
908;SDS011;441;51.192;6.788;2023-02-28T15:38:33;11.27;;;10.97;;
908;SDS011;441;51.192;6.788;2023-02-28T15:41:01;11.20;;;10.90;;
908;SDS011;441;51.192;6.788;2023-02-28T15:43:33;10.50;;;10.30;;
908;SDS011;441;51.192;6.788;2023-02-28T15:46:02;11.03;;;10.73;;
908;SDS011;441;51.192;6.788;2023-02-28T15:48:31;10.87;;;10.57;;
908;SDS011;441;51.192;6.788;2023-02-28T15:51:01;10.33;;;10.13;;
908;SDS011;441;51.192;6.788;2023-02-28T15:53:35;10.73;;;10.43;;
908;SDS011;441;51.192;6.788;2023-02-28T15:56:04;11.00;;;10.70;;
908;SDS011;441;51.192;6.788;2023-02-28T15:58:46;10.30;;;10.10;;
908;SDS011;441;51.192;6.788;2023-02-28T16:01:17;10.57;;;10.30;;
908;SDS011;441;51.192;6.788;2023-02-28T16:03:48;11.00;;;10.70;;
908;SDS011;441;51.192;6.788;2023-02-28T16:06:22;10.67;;;10.47;;
908;SDS011;441;51.192;6.788;2023-02-28T16:09:00;10.30;;;10.10;;
908;SDS011;441;51.192;6.788;2023-02-28T16:11:27;10.50;;;10.30;;
908;SDS011;441;51.192;6.788;2023-02-28T16:13:55;10.50;;;10.30;;
908;SDS011;441;51.192;6.788;2023-02-28T16:16:23;11.10;;;10.87;;
908;SDS011;441;51.192;6.788;2023-02-28T16:18:51;11.07;;;10.77;;